createdAt,value
2019-04-05T00:00:16.550Z,74.00
2019-04-05T00:02:45.810Z,74.10
2019-04-05T00:05:15.716Z,74.40
2019-04-05T00:07:45.009Z,74.20
2019-04-05T00:10:15.131Z,74.30
2019-04-05T00:12:44.358Z,74.50
2019-04-05T00:15:16.037Z,74.60
2019-04-05T00:17:45.214Z,75.00
2019-04-05T00:20:16.375Z,75.00
2019-04-05T00:22:45.714Z,75.00
2019-04-05T00:25:15.037Z,75.20
2019-04-05T00:27:45.143Z,75.30
2019-04-05T00:30:14.766Z,75.50
2019-04-05T00:32:44.066Z,75.40
2019-04-05T00:35:13.379Z,75.50
2019-04-05T00:37:42.628Z,75.50
2019-04-05T00:40:12.769Z,75.90
2019-04-05T00:42:42.015Z,75.90
2019-04-05T00:45:11.273Z,76.20
2019-04-05T00:47:40.615Z,76.10
2019-04-05T00:50:10.770Z,76.00
2019-04-05T00:52:40.022Z,76.20
2019-04-05T00:55:10.397Z,75.80
2019-04-05T00:57:40.160Z,76.30
2019-04-05T01:00:09.791Z,76.80
2019-04-05T01:02:39.162Z,77.30
2019-04-05T01:05:08.556Z,77.70
2019-04-05T01:07:37.866Z,77.70
2019-04-05T01:10:08.136Z,78.10
2019-04-05T01:12:39.101Z,78.60
2019-04-05T01:15:09.505Z,78.20
2019-04-05T01:17:39.179Z,78.70
2019-04-05T01:20:08.888Z,79.40
2019-04-05T01:22:39.313Z,79.70
2019-04-05T01:25:08.735Z,80.00
2019-04-05T01:27:40.619Z,80.60
2019-04-05T01:30:11.994Z,81.00
2019-04-05T01:32:41.242Z,81.30
2019-04-05T01:35:10.916Z,81.40
2019-04-05T01:37:41.484Z,81.70
2019-04-05T01:40:12.426Z,82.00
2019-04-05T01:42:42.662Z,82.00
2019-04-05T01:45:12.769Z,82.10
2019-04-05T01:47:42.092Z,82.10
2019-04-05T01:50:11.945Z,82.10
2019-04-05T01:52:42.445Z,82.40
2019-04-05T01:55:11.975Z,82.50
2019-04-05T01:57:41.327Z,82.50
2019-04-05T02:00:12.723Z,82.40
2019-04-05T02:02:42.353Z,82.60
2019-04-05T02:05:11.705Z,82.50
2019-04-05T02:07:41.503Z,82.50
2019-04-05T02:10:11.780Z,82.80
2019-04-05T02:12:41.503Z,83.20
2019-04-05T02:15:12.690Z,83.30
2019-04-05T02:17:41.990Z,83.80
2019-04-05T02:20:11.693Z,83.50
2019-04-05T02:22:41.000Z,84.10
2019-04-05T02:25:10.337Z,83.90
2019-04-05T02:27:39.670Z,83.30
2019-04-05T02:30:09.126Z,83.10
2019-04-05T02:32:38.459Z,83.30
2019-04-05T02:35:08.829Z,83.10
2019-04-05T02:37:38.296Z,83.20
2019-04-05T02:40:11.103Z,83.20
2019-04-05T02:42:43.173Z,83.20
2019-04-05T02:45:13.869Z,83.20
2019-04-05T02:47:45.933Z,82.90
2019-04-05T02:50:18.261Z,83.00
2019-04-05T02:52:50.541Z,83.10
2019-04-05T02:55:21.600Z,83.00
2019-04-05T02:57:51.327Z,82.80
2019-04-05T03:00:20.741Z,82.90
2019-04-05T03:02:51.215Z,82.80
2019-04-05T03:05:22.356Z,82.90
2019-04-05T03:07:51.843Z,83.00
2019-04-05T03:10:53.020Z,83.20
2019-04-05T03:13:23.905Z,83.30
2019-04-05T03:15:56.477Z,83.20
2019-04-05T03:18:29.037Z,83.10
2019-04-05T03:21:01.483Z,83.20
2019-04-05T03:23:33.409Z,82.90
2019-04-05T03:26:05.448Z,82.70
2019-04-05T03:28:37.604Z,83.30
2019-04-05T03:31:07.163Z,82.50
2019-04-05T03:33:36.659Z,82.40
2019-04-05T03:36:06.030Z,82.60
2019-04-05T03:38:35.368Z,82.50
2019-04-05T03:41:05.067Z,82.80
2019-04-05T03:43:35.468Z,82.80
2019-04-05T03:46:05.150Z,82.80
2019-04-05T03:48:34.877Z,82.70
2019-04-05T03:51:04.343Z,82.50
2019-04-05T03:53:33.647Z,82.50
2019-04-05T03:56:03.455Z,82.20
2019-04-05T03:58:33.156Z,82.10
2019-04-05T04:01:02.559Z,82.00
2019-04-05T04:03:33.416Z,82.00
2019-04-05T04:06:02.818Z,82.20
2019-04-05T04:08:32.905Z,82.70
2019-04-05T04:11:02.884Z,82.00
2019-04-05T04:13:33.126Z,82.00
2019-04-05T04:16:02.909Z,81.90
2019-04-05T04:18:32.928Z,81.80
2019-04-05T04:21:08.758Z,81.80
2019-04-05T04:23:37.993Z,81.90
2019-04-05T04:26:07.551Z,82.40
2019-04-05T04:28:37.626Z,82.30
2019-04-05T04:31:08.849Z,82.60
2019-04-05T04:33:38.169Z,82.40
2019-04-05T04:36:07.893Z,82.10
2019-04-05T04:38:37.297Z,82.00
2019-04-05T04:41:06.640Z,82.10
2019-04-05T04:43:36.607Z,81.80
2019-04-05T04:46:07.051Z,81.80
2019-04-05T04:48:36.982Z,81.30
2019-04-05T04:51:06.961Z,81.20
2019-04-05T04:53:36.367Z,81.00
2019-04-05T04:56:05.874Z,80.20
2019-04-05T04:58:35.520Z,80.00
2019-04-05T05:01:05.454Z,80.10
2019-04-05T05:03:34.711Z,79.70
2019-04-05T05:06:04.400Z,79.00
2019-04-05T05:08:34.011Z,79.10
2019-04-05T05:11:13.883Z,79.40
2019-04-05T05:13:34.598Z,79.40
2019-04-05T05:16:04.166Z,79.80
2019-04-05T05:18:33.515Z,78.70
2019-04-05T05:21:02.918Z,78.90
2019-04-05T05:23:33.258Z,78.80
2019-04-05T05:26:03.176Z,79.00
2019-04-05T05:28:32.957Z,78.50
2019-04-05T05:31:02.663Z,78.90
2019-04-05T05:33:32.435Z,78.80
2019-04-05T05:36:02.891Z,79.00
2019-04-05T05:38:32.318Z,79.10
2019-04-05T05:41:01.646Z,79.30
2019-04-05T05:43:30.924Z,79.30
2019-04-05T05:46:00.203Z,79.60
2019-04-05T05:48:31.129Z,80.10
2019-04-05T05:51:00.693Z,80.40
2019-04-05T05:53:30.014Z,80.00
2019-04-05T05:55:59.330Z,80.00
2019-04-05T05:58:28.563Z,80.30
2019-04-05T06:00:57.806Z,80.40
2019-04-05T06:03:27.086Z,80.60
2019-04-05T06:06:04.125Z,80.70
2019-04-05T06:08:29.348Z,80.50
2019-04-05T06:10:58.863Z,81.10
2019-04-05T06:13:28.091Z,80.10
2019-04-05T06:15:57.898Z,80.50
2019-04-05T06:18:27.240Z,80.40
2019-04-05T06:20:56.487Z,80.80
2019-04-05T06:23:33.624Z,80.40
2019-04-05T06:25:56.747Z,80.40
2019-04-05T06:28:26.083Z,80.10
2019-04-05T06:30:55.333Z,79.80
2019-04-05T06:33:31.341Z,80.00
2019-04-05T06:35:55.596Z,80.60
2019-04-05T06:38:25.282Z,79.70
2019-04-05T06:40:54.658Z,79.80
2019-04-05T06:43:23.916Z,80.40
2019-04-05T06:45:53.215Z,80.30
2019-04-05T06:48:22.418Z,80.10
2019-04-05T06:50:51.670Z,80.10
2019-04-05T06:53:21.273Z,80.40
2019-04-05T06:55:50.612Z,80.30
2019-04-05T06:58:20.269Z,80.20
2019-04-05T07:00:56.977Z,80.70
2019-04-05T07:03:20.701Z,79.90
2019-04-05T07:05:50.019Z,80.10
2019-04-05T07:08:19.720Z,80.30
2019-04-05T07:10:49.092Z,80.10
2019-04-05T07:13:18.411Z,79.50
2019-04-05T07:15:47.636Z,78.80
2019-04-05T07:18:16.942Z,78.20
2019-04-05T07:20:46.202Z,76.80
2019-04-05T07:23:15.454Z,75.20
2019-04-05T07:25:44.714Z,73.70
2019-04-05T07:28:14.545Z,74.30
2019-04-05T07:30:43.880Z,74.30
2019-04-05T07:33:13.208Z,73.40
2019-04-05T07:35:42.499Z,73.50
2019-04-05T07:38:11.802Z,74.10
2019-04-05T07:40:41.050Z,73.30
2019-04-05T07:43:10.595Z,72.90
2019-04-05T07:45:39.867Z,72.10
2019-04-05T07:48:09.436Z,71.10
2019-04-05T07:50:38.800Z,71.20
2019-04-05T07:53:08.143Z,71.10
2019-04-05T07:55:37.494Z,70.20
2019-04-05T07:58:06.844Z,68.90
2019-04-05T08:01:02.737Z,69.80
2019-04-05T08:03:32.094Z,68.50
2019-04-05T08:06:01.837Z,69.40
2019-04-05T08:08:40.507Z,67.50
2019-04-05T08:11:10.213Z,66.90
2019-04-05T08:13:41.580Z,65.40
2019-04-05T08:16:10.930Z,65.40
2019-04-05T08:18:40.264Z,65.40
2019-04-05T08:21:09.506Z,64.60
2019-04-05T08:23:38.873Z,64.40
2019-04-05T08:26:08.752Z,61.50
2019-04-05T08:28:38.296Z,60.30
2019-04-05T08:31:10.708Z,59.40
2019-04-05T08:33:38.569Z,57.90
2019-04-05T08:36:07.878Z,57.90
2019-04-05T08:38:39.710Z,57.40
2019-04-05T08:41:08.162Z,56.80
2019-04-05T08:43:37.474Z,56.20
2019-04-05T08:46:06.921Z,56.20
2019-04-05T08:48:36.200Z,55.00
2019-04-05T08:51:05.822Z,54.80
2019-04-05T08:53:35.690Z,56.00
2019-04-05T08:56:05.918Z,55.70
2019-04-05T08:58:35.256Z,53.10
2019-04-05T09:01:04.614Z,53.20
2019-04-05T09:03:33.891Z,54.70
2019-04-05T09:06:03.206Z,54.20
2019-04-05T09:08:32.435Z,53.40
2019-04-05T09:11:02.030Z,53.60
2019-04-05T09:13:31.375Z,53.00
2019-04-05T09:16:00.738Z,50.90
2019-04-05T09:18:29.978Z,52.90
2019-04-05T09:20:59.361Z,52.80
2019-04-05T09:23:28.617Z,52.70
2019-04-05T09:25:57.950Z,51.10
2019-04-05T09:28:28.083Z,52.50
2019-04-05T09:30:57.325Z,51.30
2019-04-05T09:33:29.621Z,51.70
2019-04-05T09:35:58.813Z,50.80
2019-04-05T09:38:28.124Z,50.60
2019-04-05T09:40:57.391Z,49.60
2019-04-05T09:43:26.642Z,49.60
2019-04-05T09:45:55.971Z,50.70
2019-04-05T09:48:25.660Z,50.00
2019-04-05T09:50:54.891Z,50.90
2019-04-05T09:53:24.202Z,49.70
2019-04-05T09:55:53.526Z,47.60
2019-04-05T09:58:22.860Z,48.10
2019-04-05T10:00:53.005Z,48.10
2019-04-05T10:03:22.255Z,47.60
2019-04-05T10:05:51.582Z,48.80
2019-04-05T10:08:21.069Z,47.30
2019-04-05T10:10:51.197Z,47.40
2019-04-05T10:13:20.425Z,47.70
2019-04-05T10:15:49.714Z,47.40
2019-04-05T10:18:19.076Z,48.40
2019-04-05T10:20:48.407Z,45.60
2019-04-05T10:23:17.750Z,45.50
2019-04-05T10:25:47.775Z,45.60
2019-04-05T10:28:17.124Z,46.10
2019-04-05T10:30:46.370Z,45.50
2019-04-05T10:33:16.292Z,47.70
2019-04-05T10:35:45.617Z,46.10
2019-04-05T10:38:14.853Z,43.80
2019-04-05T10:40:44.541Z,44.00
2019-04-05T10:43:13.823Z,43.80
2019-04-05T10:45:43.218Z,43.00
2019-04-05T10:48:12.474Z,42.50
2019-04-05T10:50:41.745Z,43.80
2019-04-05T10:53:10.972Z,44.10
2019-04-05T10:55:40.315Z,44.40
2019-04-05T10:58:09.741Z,44.60
2019-04-05T11:00:39.187Z,44.20
2019-04-05T11:03:08.503Z,43.20
2019-04-05T11:05:37.861Z,42.80
2019-04-05T11:08:07.125Z,42.00
2019-04-05T11:10:36.478Z,41.00
2019-04-05T11:13:07.803Z,40.90
2019-04-05T11:15:37.126Z,41.60
2019-04-05T11:18:06.403Z,41.40
2019-04-05T11:20:35.634Z,40.20
2019-04-05T11:23:05.114Z,41.20
2019-04-05T11:25:34.394Z,40.60
2019-04-05T11:28:04.307Z,41.80
2019-04-05T11:30:51.574Z,39.40
2019-04-05T11:33:20.918Z,40.40
2019-04-05T11:35:50.161Z,39.60
2019-04-05T11:38:20.363Z,40.40
2019-04-05T11:40:50.526Z,40.40
2019-04-05T11:43:20.767Z,39.70
2019-04-05T11:45:51.470Z,40.50
2019-04-05T11:48:20.826Z,38.90
2019-04-05T11:50:50.147Z,39.30
2019-04-05T11:53:22.002Z,39.10
2019-04-05T11:55:50.984Z,39.30
2019-04-05T11:58:20.234Z,38.50
2019-04-05T12:01:17.812Z,38.40
2019-04-05T12:03:47.131Z,37.40
2019-04-05T12:06:16.358Z,37.30
2019-04-05T12:08:45.705Z,38.40
2019-04-05T12:11:14.965Z,39.30
2019-04-05T12:13:44.218Z,37.30
2019-04-05T12:16:13.482Z,39.20
2019-04-05T12:18:42.660Z,38.80
2019-04-05T12:21:11.999Z,39.00
2019-04-05T12:23:41.474Z,37.50
2019-04-05T12:26:10.762Z,38.00
2019-04-05T12:28:40.033Z,37.80
2019-04-05T12:31:10.487Z,37.40
2019-04-05T12:33:39.860Z,38.30
2019-04-05T12:36:09.290Z,37.50
2019-04-05T12:38:39.123Z,38.20
2019-04-05T12:41:10.825Z,38.30
2019-04-05T12:43:39.424Z,37.60
2019-04-05T12:46:08.748Z,38.00
2019-04-05T12:48:38.385Z,37.60
2019-04-05T12:51:07.665Z,38.00
2019-04-05T12:53:37.020Z,38.10
2019-04-05T12:56:07.713Z,36.20
2019-04-05T12:58:37.055Z,35.80
2019-04-05T13:01:08.304Z,36.40
2019-04-05T13:03:38.024Z,36.40
2019-04-05T13:06:07.444Z,36.30
2019-04-05T13:08:36.767Z,36.60
2019-04-05T13:11:06.124Z,35.80
2019-04-05T13:13:35.355Z,35.60
2019-04-05T13:16:05.202Z,35.60
2019-04-05T13:18:34.528Z,35.80
2019-04-05T13:21:14.308Z,33.40
2019-04-05T13:23:36.550Z,32.40
2019-04-05T13:26:07.175Z,31.30
2019-04-05T13:28:36.490Z,29.30
2019-04-05T13:31:05.968Z,29.40
2019-04-05T13:33:35.378Z,29.50
2019-04-05T13:36:08.193Z,29.30
2019-04-05T13:38:36.170Z,29.70
2019-04-05T13:41:05.489Z,29.20
2019-04-05T13:43:35.155Z,28.50
2019-04-05T13:46:05.943Z,29.20
2019-04-05T13:48:35.280Z,29.30
2019-04-05T13:51:07.123Z,29.00
2019-04-05T13:53:35.530Z,29.10
2019-04-05T13:56:04.975Z,30.90
2019-04-05T13:58:34.830Z,30.30
2019-04-05T14:01:04.731Z,31.10
2019-04-05T14:03:34.055Z,31.90
2019-04-05T14:06:03.435Z,31.90
2019-04-05T14:08:32.669Z,30.40
2019-04-05T14:11:02.034Z,30.20
2019-04-05T14:13:31.400Z,32.80
2019-04-05T14:16:00.652Z,33.60
2019-04-05T14:18:29.966Z,34.00
2019-04-05T14:20:59.293Z,34.80
2019-04-05T14:23:28.502Z,34.70
2019-04-05T14:25:59.917Z,35.10
2019-04-05T14:28:29.148Z,35.30
2019-04-05T14:30:58.407Z,35.60
2019-04-05T14:33:27.792Z,35.50
2019-04-05T14:35:57.034Z,35.90
2019-04-05T14:38:26.295Z,35.90
2019-04-05T14:40:55.619Z,36.90
2019-04-05T14:43:24.953Z,36.90
2019-04-05T14:45:54.336Z,37.70
2019-04-05T14:48:27.304Z,37.70
2019-04-05T14:50:57.485Z,38.70
2019-04-05T14:53:26.026Z,38.00
2019-04-05T14:55:59.074Z,37.90
2019-04-05T14:58:26.914Z,37.90
2019-04-05T15:00:56.305Z,37.80
2019-04-05T15:03:25.579Z,39.00
2019-04-05T15:05:57.390Z,38.70
2019-04-05T15:08:26.647Z,39.00
2019-04-05T15:10:56.874Z,39.10
2019-04-05T15:13:26.713Z,39.00
2019-04-05T15:15:56.803Z,39.10
2019-04-05T15:18:26.375Z,38.60
2019-04-05T15:20:55.724Z,39.20
2019-04-05T15:23:25.064Z,39.50
2019-04-05T15:25:54.396Z,40.10
2019-04-05T15:28:24.770Z,40.20
2019-04-05T15:30:56.254Z,40.30
2019-04-05T15:33:27.839Z,40.70
2019-04-05T15:36:00.155Z,41.50
2019-04-05T15:38:31.330Z,41.50
2019-04-05T15:40:59.406Z,41.50
2019-04-05T15:43:28.682Z,41.10
2019-04-05T15:45:58.027Z,41.40
2019-04-05T15:48:27.287Z,41.50
2019-04-05T15:50:59.083Z,41.60
2019-04-05T15:53:31.632Z,41.80
2019-04-05T15:56:03.862Z,42.00
2019-04-05T15:58:31.519Z,42.80
2019-04-05T16:01:04.138Z,42.60
2019-04-05T16:03:33.176Z,42.80
2019-04-05T16:06:02.450Z,42.80
2019-04-05T16:08:31.933Z,43.30
2019-04-05T16:11:01.337Z,43.90
2019-04-05T16:13:30.585Z,44.50
2019-04-05T16:15:59.903Z,45.20
2019-04-05T16:18:29.210Z,45.90
2019-04-05T16:20:58.788Z,45.80
2019-04-05T16:23:28.051Z,46.20
2019-04-05T16:25:57.399Z,46.60
2019-04-05T16:28:26.709Z,47.10
2019-04-05T16:30:55.992Z,47.50
2019-04-05T16:33:25.299Z,48.60
2019-04-05T16:35:54.552Z,48.80
2019-04-05T16:38:23.809Z,48.80
2019-04-05T16:40:53.176Z,49.40
2019-04-05T16:43:22.489Z,49.80
2019-04-05T16:45:51.735Z,50.40
2019-04-05T16:48:21.252Z,51.10
2019-04-05T16:50:50.563Z,51.50
2019-04-05T16:53:19.825Z,52.00
2019-04-05T16:55:49.593Z,52.60
2019-04-05T16:58:18.847Z,53.60
2019-04-05T17:00:48.164Z,53.90
2019-04-05T17:03:17.456Z,54.60
2019-04-05T17:05:46.689Z,54.70
2019-04-05T17:08:16.005Z,55.50
2019-04-05T17:10:45.175Z,55.90
2019-04-05T17:13:14.427Z,56.70
2019-04-05T17:15:43.819Z,56.50
2019-04-05T17:18:13.131Z,57.30
2019-04-05T17:20:42.434Z,57.90
2019-04-05T17:23:11.769Z,59.00
2019-04-05T17:25:41.015Z,58.90
2019-04-05T17:28:10.379Z,59.20
2019-04-05T17:30:39.702Z,59.90
2019-04-05T17:33:08.973Z,59.40
2019-04-05T17:35:38.239Z,59.30
2019-04-05T17:38:07.553Z,60.00
2019-04-05T17:40:36.900Z,59.50
2019-04-05T17:43:06.151Z,59.60
2019-04-05T17:45:35.419Z,60.00
2019-04-05T17:48:04.745Z,60.40
2019-04-05T17:50:34.963Z,60.60
2019-04-05T17:53:12.502Z,61.50
2019-04-05T17:55:36.585Z,62.10
2019-04-05T17:58:06.611Z,62.10
2019-04-05T18:00:36.241Z,62.80
2019-04-05T18:03:05.582Z,63.00
2019-04-05T18:05:34.862Z,64.50
2019-04-05T18:08:04.123Z,64.50
2019-04-05T18:10:33.299Z,64.70
2019-04-05T18:13:02.646Z,65.70
2019-04-05T18:15:31.896Z,66.40
2019-04-05T18:18:01.218Z,66.10
2019-04-05T18:20:30.571Z,66.60
2019-04-05T18:23:00.003Z,68.30
2019-04-05T18:25:29.327Z,69.50
2019-04-05T18:27:58.590Z,69.00
2019-04-05T18:30:27.902Z,70.00
2019-04-05T18:32:57.275Z,70.30
2019-04-05T18:35:26.591Z,71.40
2019-04-05T18:37:56.234Z,71.00
2019-04-05T18:40:25.574Z,71.20
2019-04-05T18:42:54.897Z,71.70
2019-04-05T18:45:25.030Z,72.40
2019-04-05T18:47:54.286Z,73.50
2019-04-05T18:50:23.607Z,73.80
2019-04-05T18:52:52.955Z,74.60
2019-04-05T18:55:22.700Z,74.50
2019-04-05T18:57:52.016Z,75.80
2019-04-05T19:00:22.840Z,75.20
2019-04-05T19:02:52.144Z,75.60
2019-04-05T19:05:21.481Z,75.40
2019-04-05T19:07:50.764Z,76.20
2019-04-05T19:10:20.088Z,77.00
2019-04-05T19:12:49.920Z,76.50
2019-04-05T19:15:19.331Z,76.70
2019-04-05T19:17:48.582Z,77.10
2019-04-05T19:20:18.381Z,76.70
2019-04-05T19:22:47.631Z,76.70
2019-04-05T19:25:16.997Z,77.70
2019-04-05T19:27:46.358Z,77.30
2019-04-05T19:50:24.705Z,80.60
2019-04-05T19:52:54.058Z,81.30
2019-04-05T19:55:23.391Z,81.30
2019-04-05T19:57:52.654Z,81.30
2019-04-05T20:00:22.134Z,81.30
2019-04-05T20:02:51.371Z,82.20
2019-04-05T20:05:20.724Z,81.50
2019-04-05T20:07:50.485Z,81.70
2019-04-05T20:10:19.864Z,81.80
2019-04-05T20:12:49.196Z,82.20
2019-04-05T20:15:18.874Z,82.40
2019-04-05T20:17:48.227Z,82.60
2019-04-05T20:20:17.548Z,82.90
2019-04-05T20:22:46.908Z,83.80
2019-04-05T20:25:16.271Z,83.70
2019-04-05T20:27:45.594Z,83.80
2019-04-05T20:30:14.887Z,83.70
2019-04-05T20:32:44.198Z,83.90
2019-04-05T20:35:13.538Z,84.10
2019-04-05T20:37:42.823Z,84.30
2019-04-05T20:40:12.444Z,84.40
2019-04-05T20:42:41.772Z,84.40
2019-04-05T20:45:11.227Z,84.50
2019-04-05T20:47:40.555Z,85.00
2019-04-05T20:50:11.592Z,85.40
2019-04-05T20:52:41.147Z,86.00
2019-04-05T20:55:11.089Z,86.20
2019-04-05T20:57:40.427Z,86.60
2019-04-05T21:00:12.195Z,86.90
2019-04-05T21:02:41.491Z,87.10
2019-04-05T21:05:10.814Z,87.00
2019-04-05T21:07:40.029Z,87.30
2019-04-05T21:10:10.901Z,87.50
2019-04-05T21:12:40.154Z,87.90
2019-04-05T21:15:09.420Z,88.60
2019-04-05T21:17:39.183Z,89.10
2019-04-05T21:20:08.618Z,88.80
2019-04-05T21:22:37.981Z,90.00
2019-04-05T21:25:07.295Z,90.00
2019-04-05T21:27:37.584Z,90.20
2019-04-05T21:30:08.113Z,90.50
2019-04-05T21:32:37.346Z,90.70
2019-04-05T21:35:07.060Z,91.30
2019-04-05T21:37:36.320Z,91.70
2019-04-05T21:40:05.826Z,91.60
2019-04-05T21:42:35.193Z,91.80
2019-04-05T21:45:04.814Z,91.80
2019-04-05T21:47:34.400Z,91.90
2019-04-05T21:50:03.863Z,91.80
2019-04-05T21:52:33.173Z,91.80
2019-04-05T21:55:02.419Z,91.60
2019-04-05T21:57:31.671Z,91.60
2019-04-05T22:00:00.991Z,91.80
2019-04-05T22:02:30.683Z,91.80
2019-04-05T22:05:01.319Z,91.90
2019-04-05T22:07:30.735Z,91.90
2019-04-05T22:10:00.046Z,92.10
2019-04-05T22:12:29.328Z,92.50
2019-04-05T22:14:58.562Z,92.60
2019-04-05T22:17:28.306Z,93.10
2019-04-05T22:19:57.616Z,93.10
2019-04-05T22:22:27.477Z,93.10
2019-04-05T22:24:59.550Z,93.30
2019-04-05T22:27:27.790Z,93.50
2019-04-05T22:29:57.124Z,93.20
2019-04-05T22:32:26.472Z,93.40
2019-04-05T22:34:55.798Z,93.90
2019-04-05T22:37:25.196Z,94.00
2019-04-05T22:39:54.447Z,93.90
2019-04-05T22:42:23.685Z,93.90
2019-04-05T22:44:52.926Z,93.80
2019-04-05T22:47:22.168Z,93.70
2019-04-05T22:49:51.846Z,93.70
2019-04-05T22:52:21.090Z,93.80
2019-04-05T22:54:50.402Z,93.80
2019-04-05T22:57:19.734Z,93.80
2019-04-05T22:59:49.113Z,93.80
2019-04-05T23:02:18.372Z,94.00
2019-04-05T23:04:47.700Z,94.20
2019-04-05T23:07:16.952Z,94.10
2019-04-05T23:09:46.273Z,94.00
2019-04-05T23:12:15.523Z,94.00
2019-04-05T23:14:44.783Z,93.90
2019-04-05T23:17:14.015Z,93.70
2019-04-05T23:19:43.574Z,93.60
2019-04-05T23:22:13.058Z,93.50
2019-04-05T23:24:42.282Z,93.40
2019-04-05T23:27:11.539Z,93.40
2019-04-05T23:29:40.757Z,93.30
2019-04-05T23:32:09.990Z,93.10
2019-04-05T23:34:39.342Z,93.10
2019-04-05T23:37:08.569Z,92.90
2019-04-05T23:39:37.815Z,92.70
2019-04-05T23:42:07.145Z,92.70
2019-04-05T23:44:37.039Z,92.80
2019-04-05T23:47:06.918Z,92.80
2019-04-05T23:49:36.442Z,92.90
2019-04-05T23:52:05.697Z,92.80
2019-04-05T23:54:35.006Z,92.80
2019-04-05T23:57:04.287Z,92.80
2019-04-05T23:59:33.603Z,92.90
